DOC99 ZZZZ-ENGM
Flight info
| Callsign | DOC99 |
|---|---|
| Flight time | N/A |
| Altitude | 2500 |
| Route | |
| Aircraft | EC45 |
Departure
| Time | N/A |
|---|---|
| Airport | ZZZZ |
Arrival
| Time | 2026-05-04 19:19 |
|---|---|
| Airport | Oslo-Gardermoen International Airport (ENGM) |
| Time | Latitude | Longitude | Altitude | Speed | Heading |
|---|---|---|---|---|---|
| 2026-05-04 19:15 | 60.22378 | 10.81051 | 2412 ft | 147 kts | 56° |
| 2026-05-04 19:15 | 60.22592 | 10.83060 | 2428 ft | 147 kts | 80° |
| 2026-05-04 19:16 | 60.22654 | 10.85127 | 2412 ft | 148 kts | 83° |
| 2026-05-04 19:16 | 60.22666 | 10.86504 | 2412 ft | 149 kts | 86° |
| 2026-05-04 19:16 | 60.22637 | 10.88594 | 2410 ft | 151 kts | 89° |
| 2026-05-04 19:16 | 60.22617 | 10.90669 | 2210 ft | 147 kts | 86° |
| 2026-05-04 19:17 | 60.22605 | 10.92715 | 1995 ft | 147 kts | 87° |
| 2026-05-04 19:17 | 60.22578 | 10.95419 | 1829 ft | 143 kts | 88° |
| 2026-05-04 19:17 | 60.22566 | 10.96745 | 1811 ft | 138 kts | 91° |
| 2026-05-04 19:17 | 60.22518 | 10.98602 | 1566 ft | 128 kts | 90° |
| 2026-05-04 19:18 | 60.22389 | 11.00375 | 1521 ft | 127 kts | 99° |
| 2026-05-04 19:18 | 60.22207 | 11.02096 | 1530 ft | 124 kts | 101° |
| 2026-05-04 19:18 | 60.22007 | 11.03737 | 1389 ft | 119 kts | 102° |
| 2026-05-04 19:18 | 60.21836 | 11.05265 | 1275 ft | 105 kts | 89° |
| 2026-05-04 19:19 | 60.21874 | 11.06615 | 1057 ft | 94 kts | 78° |
| 2026-05-04 19:19 | 60.21829 | 11.07734 | 917 ft | 73 kts | 108° |
| 2026-05-04 19:19 | 60.21479 | 11.08330 | 794 ft | 62 kts | 157° |
| 2026-05-04 19:19 | 60.21183 | 11.08462 | 707 ft | 21 kts | 199° |
| 2026-05-04 19:20 | 60.21104 | 11.08448 | 706 ft | 10 kts | 203° |
| 2026-05-04 19:20 | 60.21044 | 11.08418 | 687 ft | 7 kts | 194° |
| 2026-05-04 19:20 | 60.21012 | 11.08407 | 677 ft | 0 kts | 207° |
| 2026-05-04 19:20 | 60.21008 | 11.08408 | 673 ft | 0 kts | 198° |
| 2026-05-04 19:21 | 60.21008 | 11.08410 | 674 ft | 1 kts | 211° |
| 2026-05-04 19:21 | 60.21001 | 11.08369 | 677 ft | 7 kts | 266° |
| 2026-05-04 19:22 | 60.20999 | 11.08273 | 679 ft | 8 kts | 278° |
| 2026-05-04 19:22 | 60.20998 | 11.08187 | 678 ft | 5 kts | 263° |
| 2026-05-04 19:22 | 60.20999 | 11.08144 | 677 ft | 3 kts | 183° |
| 2026-05-04 19:22 | 60.21000 | 11.08150 | 673 ft | 0 kts | 178° |